sensor_id;sensor_type;location;lat;lon;timestamp;temperature;humidity
22249;DHT22;67538;52.180;5.646;2024-01-11T00:00:45;-4.50;99.90
22249;DHT22;67538;52.180;5.646;2024-01-11T00:03:13;-4.50;99.90
22249;DHT22;67538;52.180;5.646;2024-01-11T00:05:40;-4.60;99.90
22249;DHT22;67538;52.180;5.646;2024-01-11T00:08:07;-4.60;99.90
22249;DHT22;67538;52.180;5.646;2024-01-11T00:10:34;-4.70;99.90
22249;DHT22;67538;52.180;5.646;2024-01-11T00:13:01;-4.70;99.90
22249;DHT22;67538;52.180;5.646;2024-01-11T00:15:29;-4.70;99.90
22249;DHT22;67538;52.180;5.646;2024-01-11T00:17:58;-4.70;99.90
22249;DHT22;67538;52.180;5.646;2024-01-11T00:20:25;-4.80;99.90
22249;DHT22;67538;52.180;5.646;2024-01-11T00:22:52;-4.80;99.90
22249;DHT22;67538;52.180;5.646;2024-01-11T00:25:19;-4.90;99.90
22249;DHT22;67538;52.180;5.646;2024-01-11T00:27:46;-4.90;99.90
22249;DHT22;67538;52.180;5.646;2024-01-11T00:30:13;-5.00;99.90
22249;DHT22;67538;52.180;5.646;2024-01-11T00:32:40;-5.00;99.90
22249;DHT22;67538;52.180;5.646;2024-01-11T00:35:09;-5.00;99.90
22249;DHT22;67538;52.180;5.646;2024-01-11T00:37:36;-5.10;99.90
22249;DHT22;67538;52.180;5.646;2024-01-11T00:40:04;-5.00;99.90
22249;DHT22;67538;52.180;5.646;2024-01-11T00:42:31;-5.00;99.90
22249;DHT22;67538;52.180;5.646;2024-01-11T00:45:00;-5.00;99.90
22249;DHT22;67538;52.180;5.646;2024-01-11T00:47:27;-5.10;99.90
22249;DHT22;67538;52.180;5.646;2024-01-11T00:49:54;-5.10;99.90
22249;DHT22;67538;52.180;5.646;2024-01-11T00:52:23;-5.10;99.90
22249;DHT22;67538;52.180;5.646;2024-01-11T00:54:50;-5.10;99.90
22249;DHT22;67538;52.180;5.646;2024-01-11T00:57:17;-5.20;99.90
22249;DHT22;67538;52.180;5.646;2024-01-11T00:59:44;-5.20;99.90
22249;DHT22;67538;52.180;5.646;2024-01-11T01:02:11;-5.20;99.90
22249;DHT22;67538;52.180;5.646;2024-01-11T01:04:38;-5.10;99.90
22249;DHT22;67538;52.180;5.646;2024-01-11T01:07:05;-5.10;99.90
22249;DHT22;67538;52.180;5.646;2024-01-11T01:09:34;-5.20;99.90
22249;DHT22;67538;52.180;5.646;2024-01-11T01:12:01;-5.20;99.90
22249;DHT22;67538;52.180;5.646;2024-01-11T01:14:28;-5.20;99.90
22249;DHT22;67538;52.180;5.646;2024-01-11T01:16:56;-5.20;99.90
22249;DHT22;67538;52.180;5.646;2024-01-11T01:19:23;-5.20;99.90
22249;DHT22;67538;52.180;5.646;2024-01-11T01:21:50;-5.20;99.90
22249;DHT22;67538;52.180;5.646;2024-01-11T01:24:17;-5.10;99.90
22249;DHT22;67538;52.180;5.646;2024-01-11T01:26:45;-5.20;99.90
22249;DHT22;67538;52.180;5.646;2024-01-11T01:29:12;-5.20;99.90
22249;DHT22;67538;52.180;5.646;2024-01-11T01:31:39;-5.20;99.90
22249;DHT22;67538;52.180;5.646;2024-01-11T01:34:07;-5.20;99.90
22249;DHT22;67538;52.180;5.646;2024-01-11T01:36:34;-5.20;99.90
22249;DHT22;67538;52.180;5.646;2024-01-11T01:39:01;-5.30;99.90
22249;DHT22;67538;52.180;5.646;2024-01-11T01:41:29;-5.30;99.90
22249;DHT22;67538;52.180;5.646;2024-01-11T01:43:57;-5.30;99.90
22249;DHT22;67538;52.180;5.646;2024-01-11T01:46:25;-5.30;99.90
22249;DHT22;67538;52.180;5.646;2024-01-11T01:48:54;-5.30;99.90
22249;DHT22;67538;52.180;5.646;2024-01-11T01:51:22;-5.30;99.90
22249;DHT22;67538;52.180;5.646;2024-01-11T01:53:51;-5.40;99.90
22249;DHT22;67538;52.180;5.646;2024-01-11T01:56:20;-5.40;99.90
22249;DHT22;67538;52.180;5.646;2024-01-11T01:58:48;-5.50;99.90
22249;DHT22;67538;52.180;5.646;2024-01-11T02:01:19;-5.50;99.90
22249;DHT22;67538;52.180;5.646;2024-01-11T02:03:50;-5.50;99.90
22249;DHT22;67538;52.180;5.646;2024-01-11T02:06:18;-5.60;99.90
22249;DHT22;67538;52.180;5.646;2024-01-11T02:08:49;-5.70;99.90
22249;DHT22;67538;52.180;5.646;2024-01-11T02:11:19;-5.70;99.90
22249;DHT22;67538;52.180;5.646;2024-01-11T02:13:47;-5.80;99.90
22249;DHT22;67538;52.180;5.646;2024-01-11T02:16:14;-5.70;99.90
22249;DHT22;67538;52.180;5.646;2024-01-11T02:18:43;-5.70;99.90
22249;DHT22;67538;52.180;5.646;2024-01-11T02:21:13;-5.70;99.90
22249;DHT22;67538;52.180;5.646;2024-01-11T02:23:43;-5.70;99.90
22249;DHT22;67538;52.180;5.646;2024-01-11T02:26:14;-5.70;99.90
22249;DHT22;67538;52.180;5.646;2024-01-11T02:28:44;-5.80;99.90
22249;DHT22;67538;52.180;5.646;2024-01-11T02:31:12;-5.80;99.90
22249;DHT22;67538;52.180;5.646;2024-01-11T02:33:41;-5.80;99.90
22249;DHT22;67538;52.180;5.646;2024-01-11T02:36:09;-5.80;99.90
22249;DHT22;67538;52.180;5.646;2024-01-11T02:38:36;-5.80;99.90
22249;DHT22;67538;52.180;5.646;2024-01-11T02:41:04;-5.80;99.90
22249;DHT22;67538;52.180;5.646;2024-01-11T02:43:33;-5.80;99.90
22249;DHT22;67538;52.180;5.646;2024-01-11T02:46:01;-5.90;99.90
22249;DHT22;67538;52.180;5.646;2024-01-11T02:48:29;-5.90;99.90
22249;DHT22;67538;52.180;5.646;2024-01-11T02:50:56;-5.90;99.90
22249;DHT22;67538;52.180;5.646;2024-01-11T02:53:23;-5.90;99.90
22249;DHT22;67538;52.180;5.646;2024-01-11T02:55:50;-5.90;99.90
22249;DHT22;67538;52.180;5.646;2024-01-11T02:58:17;-5.90;99.90
22249;DHT22;67538;52.180;5.646;2024-01-11T03:00:46;-6.00;99.90
22249;DHT22;67538;52.180;5.646;2024-01-11T03:03:13;-6.00;99.90
22249;DHT22;67538;52.180;5.646;2024-01-11T03:05:40;-6.00;99.90
22249;DHT22;67538;52.180;5.646;2024-01-11T03:08:07;-6.00;99.90
22249;DHT22;67538;52.180;5.646;2024-01-11T03:10:37;-6.00;99.90
22249;DHT22;67538;52.180;5.646;2024-01-11T03:13:05;-6.00;99.90
22249;DHT22;67538;52.180;5.646;2024-01-11T03:15:32;-6.00;99.90
22249;DHT22;67538;52.180;5.646;2024-01-11T03:18:01;-6.10;99.90
22249;DHT22;67538;52.180;5.646;2024-01-11T03:20:28;-6.10;99.90
22249;DHT22;67538;52.180;5.646;2024-01-11T03:22:55;-6.10;99.90
22249;DHT22;67538;52.180;5.646;2024-01-11T03:25:22;-6.10;99.90
22249;DHT22;67538;52.180;5.646;2024-01-11T03:27:49;-6.10;99.90
22249;DHT22;67538;52.180;5.646;2024-01-11T03:30:16;-6.10;99.90
22249;DHT22;67538;52.180;5.646;2024-01-11T03:32:43;-6.20;99.90
22249;DHT22;67538;52.180;5.646;2024-01-11T03:35:12;-6.20;99.90
22249;DHT22;67538;52.180;5.646;2024-01-11T03:37:39;-6.20;99.90
22249;DHT22;67538;52.180;5.646;2024-01-11T03:40:07;-6.20;99.90
22249;DHT22;67538;52.180;5.646;2024-01-11T03:42:34;-6.20;99.90
22249;DHT22;67538;52.180;5.646;2024-01-11T03:45:01;-6.30;99.90
22249;DHT22;67538;52.180;5.646;2024-01-11T03:47:28;-6.30;99.90
22249;DHT22;67538;52.180;5.646;2024-01-11T03:49:55;-6.20;99.90
22249;DHT22;67538;52.180;5.646;2024-01-11T03:52:24;-6.20;99.90
22249;DHT22;67538;52.180;5.646;2024-01-11T03:54:51;-6.30;99.90
22249;DHT22;67538;52.180;5.646;2024-01-11T03:57:18;-6.30;99.90
22249;DHT22;67538;52.180;5.646;2024-01-11T03:59:45;-6.30;99.90
22249;DHT22;67538;52.180;5.646;2024-01-11T04:02:12;-6.30;99.90
22249;DHT22;67538;52.180;5.646;2024-01-11T04:04:40;-6.30;99.90
22249;DHT22;67538;52.180;5.646;2024-01-11T04:07:08;-6.30;99.90
22249;DHT22;67538;52.180;5.646;2024-01-11T04:09:38;-6.40;99.90
22249;DHT22;67538;52.180;5.646;2024-01-11T04:12:06;-6.40;99.90
22249;DHT22;67538;52.180;5.646;2024-01-11T04:14:33;-6.40;99.90
22249;DHT22;67538;52.180;5.646;2024-01-11T04:17:04;-6.40;99.90
22249;DHT22;67538;52.180;5.646;2024-01-11T04:19:31;-6.30;99.90
22249;DHT22;67538;52.180;5.646;2024-01-11T04:21:58;-6.30;99.90
22249;DHT22;67538;52.180;5.646;2024-01-11T04:24:25;-6.30;99.90
22249;DHT22;67538;52.180;5.646;2024-01-11T04:26:54;-6.40;99.90
22249;DHT22;67538;52.180;5.646;2024-01-11T04:29:21;-6.40;99.90
22249;DHT22;67538;52.180;5.646;2024-01-11T04:31:48;-6.40;99.90
22249;DHT22;67538;52.180;5.646;2024-01-11T04:34:15;-6.40;99.90
22249;DHT22;67538;52.180;5.646;2024-01-11T04:36:42;-6.40;99.90
22249;DHT22;67538;52.180;5.646;2024-01-11T04:39:09;-6.40;99.90
22249;DHT22;67538;52.180;5.646;2024-01-11T04:41:37;-6.40;99.90
22249;DHT22;67538;52.180;5.646;2024-01-11T04:44:05;-6.40;99.90
22249;DHT22;67538;52.180;5.646;2024-01-11T04:46:32;-6.40;99.90
22249;DHT22;67538;52.180;5.646;2024-01-11T04:48:59;-6.40;99.90
22249;DHT22;67538;52.180;5.646;2024-01-11T04:51:26;-6.40;99.90
22249;DHT22;67538;52.180;5.646;2024-01-11T04:53:53;-6.40;99.90
22249;DHT22;67538;52.180;5.646;2024-01-11T04:56:20;-6.40;99.90
22249;DHT22;67538;52.180;5.646;2024-01-11T04:58:48;-6.40;99.90
22249;DHT22;67538;52.180;5.646;2024-01-11T05:01:17;-6.40;99.90
22249;DHT22;67538;52.180;5.646;2024-01-11T05:03:45;-6.30;99.90
22249;DHT22;67538;52.180;5.646;2024-01-11T05:06:15;-6.40;99.90
22249;DHT22;67538;52.180;5.646;2024-01-11T05:08:43;-6.40;99.90
22249;DHT22;67538;52.180;5.646;2024-01-11T05:11:15;-6.30;99.90
22249;DHT22;67538;52.180;5.646;2024-01-11T05:13:43;-6.40;99.90
22249;DHT22;67538;52.180;5.646;2024-01-11T05:16:21;-6.30;99.90
22249;DHT22;67538;52.180;5.646;2024-01-11T05:18:49;-6.30;99.90
22249;DHT22;67538;52.180;5.646;2024-01-11T05:21:16;-6.30;99.90
22249;DHT22;67538;52.180;5.646;2024-01-11T05:23:43;-6.40;99.90
22249;DHT22;67538;52.180;5.646;2024-01-11T05:26:11;-6.40;99.90
22249;DHT22;67538;52.180;5.646;2024-01-11T05:28:38;-6.30;99.90
22249;DHT22;67538;52.180;5.646;2024-01-11T05:31:05;-6.40;99.90
22249;DHT22;67538;52.180;5.646;2024-01-11T05:33:35;-6.30;99.90
22249;DHT22;67538;52.180;5.646;2024-01-11T05:36:02;-6.30;99.90
22249;DHT22;67538;52.180;5.646;2024-01-11T05:38:29;-6.30;99.90
22249;DHT22;67538;52.180;5.646;2024-01-11T05:40:56;-6.30;99.90
22249;DHT22;67538;52.180;5.646;2024-01-11T05:43:23;-6.30;99.90
22249;DHT22;67538;52.180;5.646;2024-01-11T05:45:51;-6.30;99.90
22249;DHT22;67538;52.180;5.646;2024-01-11T05:48:18;-6.30;99.90
22249;DHT22;67538;52.180;5.646;2024-01-11T05:50:46;-6.30;99.90
22249;DHT22;67538;52.180;5.646;2024-01-11T05:53:14;-6.30;99.90
22249;DHT22;67538;52.180;5.646;2024-01-11T05:55:41;-6.40;99.90
22249;DHT22;67538;52.180;5.646;2024-01-11T05:58:08;-6.40;99.90
22249;DHT22;67538;52.180;5.646;2024-01-11T06:00:35;-6.40;99.90
22249;DHT22;67538;52.180;5.646;2024-01-11T06:03:03;-6.40;99.90
22249;DHT22;67538;52.180;5.646;2024-01-11T06:05:30;-6.40;99.90
22249;DHT22;67538;52.180;5.646;2024-01-11T06:07:58;-6.40;99.90
22249;DHT22;67538;52.180;5.646;2024-01-11T06:10:25;-6.50;99.90
22249;DHT22;67538;52.180;5.646;2024-01-11T06:12:52;-6.50;99.90
22249;DHT22;67538;52.180;5.646;2024-01-11T06:15:19;-6.60;99.90
22249;DHT22;67538;52.180;5.646;2024-01-11T06:17:47;-6.60;99.90
22249;DHT22;67538;52.180;5.646;2024-01-11T06:20:14;-6.60;99.90
22249;DHT22;67538;52.180;5.646;2024-01-11T06:22:41;-6.60;99.90
22249;DHT22;67538;52.180;5.646;2024-01-11T06:25:10;-6.60;99.90
22249;DHT22;67538;52.180;5.646;2024-01-11T06:27:37;-6.60;99.90
22249;DHT22;67538;52.180;5.646;2024-01-11T06:30:05;-6.60;99.90
22249;DHT22;67538;52.180;5.646;2024-01-11T06:32:33;-6.50;99.90
22249;DHT22;67538;52.180;5.646;2024-01-11T06:35:00;-6.60;99.90
22249;DHT22;67538;52.180;5.646;2024-01-11T06:37:27;-6.50;99.90
22249;DHT22;67538;52.180;5.646;2024-01-11T06:39:54;-6.50;99.90
22249;DHT22;67538;52.180;5.646;2024-01-11T06:42:23;-6.50;99.90
22249;DHT22;67538;52.180;5.646;2024-01-11T06:44:50;-6.50;99.90
22249;DHT22;67538;52.180;5.646;2024-01-11T06:47:17;-6.50;99.90
22249;DHT22;67538;52.180;5.646;2024-01-11T06:49:44;-6.50;99.90
22249;DHT22;67538;52.180;5.646;2024-01-11T06:52:12;-6.50;99.90
22249;DHT22;67538;52.180;5.646;2024-01-11T06:54:39;-6.60;99.90
22249;DHT22;67538;52.180;5.646;2024-01-11T06:57:07;-6.60;99.90
22249;DHT22;67538;52.180;5.646;2024-01-11T06:59:36;-6.50;99.90
22249;DHT22;67538;52.180;5.646;2024-01-11T07:02:03;-6.60;99.90
22249;DHT22;67538;52.180;5.646;2024-01-11T07:04:30;-6.60;99.90
22249;DHT22;67538;52.180;5.646;2024-01-11T07:06:57;-6.60;99.90
22249;DHT22;67538;52.180;5.646;2024-01-11T07:09:24;-6.60;99.90
22249;DHT22;67538;52.180;5.646;2024-01-11T07:11:51;-6.50;99.90
22249;DHT22;67538;52.180;5.646;2024-01-11T07:14:18;-6.50;99.90
22249;DHT22;67538;52.180;5.646;2024-01-11T07:16:47;-6.50;99.90
22249;DHT22;67538;52.180;5.646;2024-01-11T07:19:15;-6.40;99.90
22249;DHT22;67538;52.180;5.646;2024-01-11T07:21:42;-6.30;99.90
22249;DHT22;67538;52.180;5.646;2024-01-11T07:24:09;-6.30;99.90
22249;DHT22;67538;52.180;5.646;2024-01-11T07:26:36;-6.30;99.90
22249;DHT22;67538;52.180;5.646;2024-01-11T07:29:03;-6.30;99.90
22249;DHT22;67538;52.180;5.646;2024-01-11T07:31:30;-6.30;99.90
22249;DHT22;67538;52.180;5.646;2024-01-11T07:33:59;-6.20;99.90
22249;DHT22;67538;52.180;5.646;2024-01-11T07:36:26;-6.20;99.90
22249;DHT22;67538;52.180;5.646;2024-01-11T07:38:53;-6.20;99.90
22249;DHT22;67538;52.180;5.646;2024-01-11T07:41:21;-6.20;99.90
22249;DHT22;67538;52.180;5.646;2024-01-11T07:43:48;-6.20;99.90
22249;DHT22;67538;52.180;5.646;2024-01-11T07:46:15;-6.10;99.90
22249;DHT22;67538;52.180;5.646;2024-01-11T07:48:43;-6.10;99.90
22249;DHT22;67538;52.180;5.646;2024-01-11T07:51:11;-6.10;99.90
22249;DHT22;67538;52.180;5.646;2024-01-11T07:53:38;-6.20;99.90
22249;DHT22;67538;52.180;5.646;2024-01-11T07:56:06;-6.20;99.90
22249;DHT22;67538;52.180;5.646;2024-01-11T07:58:33;-6.10;99.90
22249;DHT22;67538;52.180;5.646;2024-01-11T08:01:03;-6.10;99.90
22249;DHT22;67538;52.180;5.646;2024-01-11T08:03:30;-6.00;99.90
22249;DHT22;67538;52.180;5.646;2024-01-11T08:05:58;-6.00;99.90
22249;DHT22;67538;52.180;5.646;2024-01-11T08:08:27;-5.90;99.90
22249;DHT22;67538;52.180;5.646;2024-01-11T08:10:54;-5.90;99.90
22249;DHT22;67538;52.180;5.646;2024-01-11T08:13:21;-5.80;99.90
22249;DHT22;67538;52.180;5.646;2024-01-11T08:15:48;-5.80;99.90
22249;DHT22;67538;52.180;5.646;2024-01-11T08:18:18;-5.70;99.90
22249;DHT22;67538;52.180;5.646;2024-01-11T08:20:45;-5.70;99.90
22249;DHT22;67538;52.180;5.646;2024-01-11T08:23:12;-5.70;99.90
22249;DHT22;67538;52.180;5.646;2024-01-11T08:25:41;-5.60;99.90
22249;DHT22;67538;52.180;5.646;2024-01-11T08:28:08;-5.50;99.90
22249;DHT22;67538;52.180;5.646;2024-01-11T08:30:35;-5.50;99.90
22249;DHT22;67538;52.180;5.646;2024-01-11T08:33:02;-5.40;99.90
22249;DHT22;67538;52.180;5.646;2024-01-11T08:35:30;-5.30;99.90
22249;DHT22;67538;52.180;5.646;2024-01-11T08:37:58;-5.20;99.90
22249;DHT22;67538;52.180;5.646;2024-01-11T08:40:26;-5.10;99.90
22249;DHT22;67538;52.180;5.646;2024-01-11T08:42:55;-5.00;99.90
22249;DHT22;67538;52.180;5.646;2024-01-11T08:45:22;-4.90;99.90
22249;DHT22;67538;52.180;5.646;2024-01-11T08:47:49;-4.90;99.90
22249;DHT22;67538;52.180;5.646;2024-01-11T08:50:17;-4.80;99.90
22249;DHT22;67538;52.180;5.646;2024-01-11T08:52:46;-4.60;99.90
22249;DHT22;67538;52.180;5.646;2024-01-11T08:55:13;-4.50;99.90
22249;DHT22;67538;52.180;5.646;2024-01-11T08:57:41;-4.30;99.90
22249;DHT22;67538;52.180;5.646;2024-01-11T09:00:11;-4.10;99.90
22249;DHT22;67538;52.180;5.646;2024-01-11T09:02:42;-3.90;99.90
22249;DHT22;67538;52.180;5.646;2024-01-11T09:05:10;-3.70;99.90
22249;DHT22;67538;52.180;5.646;2024-01-11T09:07:37;-3.50;99.90
22249;DHT22;67538;52.180;5.646;2024-01-11T09:10:05;-3.20;99.90
22249;DHT22;67538;52.180;5.646;2024-01-11T09:12:34;-3.20;99.90
22249;DHT22;67538;52.180;5.646;2024-01-11T09:15:02;-3.20;99.90
22249;DHT22;67538;52.180;5.646;2024-01-11T09:17:30;-3.20;99.90
22249;DHT22;67538;52.180;5.646;2024-01-11T09:19:58;-3.30;99.90
22249;DHT22;67538;52.180;5.646;2024-01-11T09:22:25;-3.30;99.90
22249;DHT22;67538;52.180;5.646;2024-01-11T09:24:53;-3.30;99.90
22249;DHT22;67538;52.180;5.646;2024-01-11T09:27:20;-3.20;99.90
22249;DHT22;67538;52.180;5.646;2024-01-11T09:29:47;-3.20;99.90
22249;DHT22;67538;52.180;5.646;2024-01-11T09:32:15;-3.20;99.90
22249;DHT22;67538;52.180;5.646;2024-01-11T09:34:43;-3.10;99.90
22249;DHT22;67538;52.180;5.646;2024-01-11T09:37:11;-3.00;99.90
22249;DHT22;67538;52.180;5.646;2024-01-11T09:39:38;-3.00;99.90
22249;DHT22;67538;52.180;5.646;2024-01-11T09:42:07;-2.90;99.90
22249;DHT22;67538;52.180;5.646;2024-01-11T09:44:36;-2.80;99.90
22249;DHT22;67538;52.180;5.646;2024-01-11T09:47:06;-2.70;99.90
22249;DHT22;67538;52.180;5.646;2024-01-11T09:49:36;-2.60;99.90
22249;DHT22;67538;52.180;5.646;2024-01-11T09:52:06;-2.60;99.90
22249;DHT22;67538;52.180;5.646;2024-01-11T09:54:35;-2.50;99.90
22249;DHT22;67538;52.180;5.646;2024-01-11T09:57:04;-2.40;99.90
22249;DHT22;67538;52.180;5.646;2024-01-11T09:59:32;-2.40;99.90
22249;DHT22;67538;52.180;5.646;2024-01-11T10:02:02;-2.40;99.90
22249;DHT22;67538;52.180;5.646;2024-01-11T10:04:33;-2.30;99.90
22249;DHT22;67538;52.180;5.646;2024-01-11T10:07:04;-2.30;99.90
22249;DHT22;67538;52.180;5.646;2024-01-11T10:09:32;-2.20;99.90
22249;DHT22;67538;52.180;5.646;2024-01-11T10:11:59;-2.20;99.90
22249;DHT22;67538;52.180;5.646;2024-01-11T10:14:26;-2.10;99.90
22249;DHT22;67538;52.180;5.646;2024-01-11T10:16:54;-2.00;99.90
22249;DHT22;67538;52.180;5.646;2024-01-11T10:19:21;-2.10;99.90
22249;DHT22;67538;52.180;5.646;2024-01-11T10:21:48;-2.00;99.90
22249;DHT22;67538;52.180;5.646;2024-01-11T10:24:19;-2.00;99.90
22249;DHT22;67538;52.180;5.646;2024-01-11T10:26:48;-2.00;99.90
22249;DHT22;67538;52.180;5.646;2024-01-11T10:29:17;-2.00;99.90
22249;DHT22;67538;52.180;5.646;2024-01-11T10:31:44;-1.90;99.90
22249;DHT22;67538;52.180;5.646;2024-01-11T10:34:11;-1.80;99.90
22249;DHT22;67538;52.180;5.646;2024-01-11T10:36:38;-1.80;99.90
22249;DHT22;67538;52.180;5.646;2024-01-11T10:39:08;-1.70;99.90
22249;DHT22;67538;52.180;5.646;2024-01-11T10:41:39;-1.70;99.90
22249;DHT22;67538;52.180;5.646;2024-01-11T10:44:15;-1.60;99.90
22249;DHT22;67538;52.180;5.646;2024-01-11T10:46:45;-1.50;99.90
22249;DHT22;67538;52.180;5.646;2024-01-11T10:49:15;-1.40;99.90
22249;DHT22;67538;52.180;5.646;2024-01-11T10:51:46;-1.40;99.90
22249;DHT22;67538;52.180;5.646;2024-01-11T10:54:15;-1.30;99.90
22249;DHT22;67538;52.180;5.646;2024-01-11T10:56:44;-1.30;99.90
22249;DHT22;67538;52.180;5.646;2024-01-11T10:59:12;-1.20;99.90
22249;DHT22;67538;52.180;5.646;2024-01-11T11:01:40;-1.20;99.90
22249;DHT22;67538;52.180;5.646;2024-01-11T11:04:08;-1.10;99.90
22249;DHT22;67538;52.180;5.646;2024-01-11T11:06:37;-1.10;99.90
22249;DHT22;67538;52.180;5.646;2024-01-11T11:09:06;-1.10;99.90
22249;DHT22;67538;52.180;5.646;2024-01-11T11:11:34;-1.00;99.90
22249;DHT22;67538;52.180;5.646;2024-01-11T11:14:03;-1.00;99.90
22249;DHT22;67538;52.180;5.646;2024-01-11T11:16:31;-0.90;99.90
22249;DHT22;67538;52.180;5.646;2024-01-11T11:18:58;-0.90;99.90
22249;DHT22;67538;52.180;5.646;2024-01-11T11:21:26;-0.90;99.90
22249;DHT22;67538;52.180;5.646;2024-01-11T11:23:55;-0.80;99.90
22249;DHT22;67538;52.180;5.646;2024-01-11T11:26:22;-0.80;99.90
22249;DHT22;67538;52.180;5.646;2024-01-11T11:28:52;-0.80;99.90
22249;DHT22;67538;52.180;5.646;2024-01-11T11:34:13;-0.80;99.90
22249;DHT22;67538;52.180;5.646;2024-01-11T11:36:41;-0.70;99.90
22249;DHT22;67538;52.180;5.646;2024-01-11T11:39:10;-0.60;99.90
22249;DHT22;67538;52.180;5.646;2024-01-11T11:41:38;-0.60;99.90
22249;DHT22;67538;52.180;5.646;2024-01-11T11:44:06;-0.60;99.90
22249;DHT22;67538;52.180;5.646;2024-01-11T11:46:33;-0.50;99.90
22249;DHT22;67538;52.180;5.646;2024-01-11T11:49:00;-0.40;99.90
22249;DHT22;67538;52.180;5.646;2024-01-11T11:51:29;-0.40;99.90
22249;DHT22;67538;52.180;5.646;2024-01-11T11:53:57;-0.30;99.90
22249;DHT22;67538;52.180;5.646;2024-01-11T11:56:24;-0.30;99.90
22249;DHT22;67538;52.180;5.646;2024-01-11T11:58:52;-0.20;99.90
22249;DHT22;67538;52.180;5.646;2024-01-11T12:01:20;-0.20;99.90
22249;DHT22;67538;52.180;5.646;2024-01-11T12:03:47;-0.20;99.90
22249;DHT22;67538;52.180;5.646;2024-01-11T12:06:17;-0.20;99.90
22249;DHT22;67538;52.180;5.646;2024-01-11T12:08:47;-0.30;99.90
22249;DHT22;67538;52.180;5.646;2024-01-11T12:11:15;-0.30;99.90
22249;DHT22;67538;52.180;5.646;2024-01-11T12:13:44;-0.30;99.90
22249;DHT22;67538;52.180;5.646;2024-01-11T12:16:11;-0.20;99.90
22249;DHT22;67538;52.180;5.646;2024-01-11T12:18:39;-0.20;99.90
22249;DHT22;67538;52.180;5.646;2024-01-11T12:21:06;-0.20;99.90
22249;DHT22;67538;52.180;5.646;2024-01-11T12:23:34;-0.10;99.90
22249;DHT22;67538;52.180;5.646;2024-01-11T12:26:03;0.00;99.90
22249;DHT22;67538;52.180;5.646;2024-01-11T12:28:33;0.00;99.90
22249;DHT22;67538;52.180;5.646;2024-01-11T12:31:00;0.10;99.90
22249;DHT22;67538;52.180;5.646;2024-01-11T12:33:29;0.20;99.90
22249;DHT22;67538;52.180;5.646;2024-01-11T12:35:56;0.20;99.90
22249;DHT22;67538;52.180;5.646;2024-01-11T12:38:23;0.20;99.90
22249;DHT22;67538;52.180;5.646;2024-01-11T12:40:51;0.30;99.90
22249;DHT22;67538;52.180;5.646;2024-01-11T12:43:20;0.30;99.90
22249;DHT22;67538;52.180;5.646;2024-01-11T12:45:47;0.30;99.90
22249;DHT22;67538;52.180;5.646;2024-01-11T12:48:14;0.40;99.90
22249;DHT22;67538;52.180;5.646;2024-01-11T12:50:43;0.40;99.90
22249;DHT22;67538;52.180;5.646;2024-01-11T12:53:11;0.40;99.90
22249;DHT22;67538;52.180;5.646;2024-01-11T12:55:44;0.40;99.90
22249;DHT22;67538;52.180;5.646;2024-01-11T12:58:11;0.40;99.90
22249;DHT22;67538;52.180;5.646;2024-01-11T13:00:40;0.40;99.90
22249;DHT22;67538;52.180;5.646;2024-01-11T13:03:07;0.40;99.90
22249;DHT22;67538;52.180;5.646;2024-01-11T13:05:35;0.50;99.90
22249;DHT22;67538;52.180;5.646;2024-01-11T13:08:07;0.50;99.90
22249;DHT22;67538;52.180;5.646;2024-01-11T13:10:35;0.50;99.90
22249;DHT22;67538;52.180;5.646;2024-01-11T13:13:03;0.50;99.90
22249;DHT22;67538;52.180;5.646;2024-01-11T13:15:31;0.50;99.90
22249;DHT22;67538;52.180;5.646;2024-01-11T13:18:00;0.40;99.90
22249;DHT22;67538;52.180;5.646;2024-01-11T13:20:27;0.50;99.90
22249;DHT22;67538;52.180;5.646;2024-01-11T13:23:13;0.50;99.90
22249;DHT22;67538;52.180;5.646;2024-01-11T13:25:41;0.50;99.90
22249;DHT22;67538;52.180;5.646;2024-01-11T13:28:08;0.50;99.90
22249;DHT22;67538;52.180;5.646;2024-01-11T13:30:37;0.50;99.90
22249;DHT22;67538;52.180;5.646;2024-01-11T13:33:08;0.60;99.90
22249;DHT22;67538;52.180;5.646;2024-01-11T13:35:36;0.60;99.90
22249;DHT22;67538;52.180;5.646;2024-01-11T13:38:04;0.70;99.90
22249;DHT22;67538;52.180;5.646;2024-01-11T13:40:32;0.60;99.90
22249;DHT22;67538;52.180;5.646;2024-01-11T13:42:59;0.60;99.90
22249;DHT22;67538;52.180;5.646;2024-01-11T13:45:27;0.60;99.90
22249;DHT22;67538;52.180;5.646;2024-01-11T13:47:55;0.60;99.90
22249;DHT22;67538;52.180;5.646;2024-01-11T13:50:23;0.60;99.90
22249;DHT22;67538;52.180;5.646;2024-01-11T13:52:51;0.60;99.90
22249;DHT22;67538;52.180;5.646;2024-01-11T13:55:18;0.60;99.90
22249;DHT22;67538;52.180;5.646;2024-01-11T13:57:47;0.60;99.90
22249;DHT22;67538;52.180;5.646;2024-01-11T14:00:15;0.50;99.90
22249;DHT22;67538;52.180;5.646;2024-01-11T14:02:44;0.60;99.90
22249;DHT22;67538;52.180;5.646;2024-01-11T14:05:11;0.60;99.90
22249;DHT22;67538;52.180;5.646;2024-01-11T14:07:42;0.50;99.90
22249;DHT22;67538;52.180;5.646;2024-01-11T14:10:10;0.50;99.90
22249;DHT22;67538;52.180;5.646;2024-01-11T14:12:38;0.50;99.90
22249;DHT22;67538;52.180;5.646;2024-01-11T14:15:07;0.50;99.90
22249;DHT22;67538;52.180;5.646;2024-01-11T14:17:37;0.50;99.90
22249;DHT22;67538;52.180;5.646;2024-01-11T14:20:05;0.50;99.90
22249;DHT22;67538;52.180;5.646;2024-01-11T14:22:37;0.50;99.90
22249;DHT22;67538;52.180;5.646;2024-01-11T14:25:06;0.50;99.90
22249;DHT22;67538;52.180;5.646;2024-01-11T14:27:33;0.50;99.90
22249;DHT22;67538;52.180;5.646;2024-01-11T14:30:00;0.50;99.90
22249;DHT22;67538;52.180;5.646;2024-01-11T14:32:31;0.50;99.90
22249;DHT22;67538;52.180;5.646;2024-01-11T14:34:58;0.50;99.90
22249;DHT22;67538;52.180;5.646;2024-01-11T14:37:29;0.60;99.90
22249;DHT22;67538;52.180;5.646;2024-01-11T14:39:56;0.50;99.90
22249;DHT22;67538;52.180;5.646;2024-01-11T14:42:25;0.50;99.90
22249;DHT22;67538;52.180;5.646;2024-01-11T14:44:52;0.50;99.90
22249;DHT22;67538;52.180;5.646;2024-01-11T14:47:20;0.50;99.90
22249;DHT22;67538;52.180;5.646;2024-01-11T14:49:48;0.50;99.90
22249;DHT22;67538;52.180;5.646;2024-01-11T14:52:15;0.50;99.90
22249;DHT22;67538;52.180;5.646;2024-01-11T14:54:42;0.50;99.90
22249;DHT22;67538;52.180;5.646;2024-01-11T14:57:09;0.50;99.90
22249;DHT22;67538;52.180;5.646;2024-01-11T14:59:38;0.50;99.90
22249;DHT22;67538;52.180;5.646;2024-01-11T15:02:05;0.50;99.90
22249;DHT22;67538;52.180;5.646;2024-01-11T15:04:32;0.50;99.90
22249;DHT22;67538;52.180;5.646;2024-01-11T15:06:59;0.50;99.90
22249;DHT22;67538;52.180;5.646;2024-01-11T15:09:26;0.50;99.90
22249;DHT22;67538;52.180;5.646;2024-01-11T15:11:54;0.50;99.90
22249;DHT22;67538;52.180;5.646;2024-01-11T15:14:21;0.50;99.90
22249;DHT22;67538;52.180;5.646;2024-01-11T15:16:50;0.40;99.90
22249;DHT22;67538;52.180;5.646;2024-01-11T15:19:17;0.40;99.90
22249;DHT22;67538;52.180;5.646;2024-01-11T15:21:44;0.50;99.90
22249;DHT22;67538;52.180;5.646;2024-01-11T15:24:12;0.40;99.90
22249;DHT22;67538;52.180;5.646;2024-01-11T15:26:39;0.40;99.90
22249;DHT22;67538;52.180;5.646;2024-01-11T15:29:07;0.40;99.90
22249;DHT22;67538;52.180;5.646;2024-01-11T15:31:34;0.30;99.90
22249;DHT22;67538;52.180;5.646;2024-01-11T15:34:05;0.40;99.90
22249;DHT22;67538;52.180;5.646;2024-01-11T15:36:33;0.40;99.90
22249;DHT22;67538;52.180;5.646;2024-01-11T15:39:01;0.40;99.90
22249;DHT22;67538;52.180;5.646;2024-01-11T15:41:28;0.40;99.90